Time;durP1;ratioP1;P1;durP2;ratioP2;P2;SDS_P1;SDS_P2;PMS_P1;PMS_P2;Temp;Humidity;BMP_temperature;BMP_pressure;BME280_temperature;BME280_humidity;BME280_pressure;Samples;Min_cycle;Max_cycle;Signal;HPM_P1;HPM_P2
2022/10/01 00:01:40;;;;;;;25.27;4.63;;;;;;;;;;4973157;28;20061;-67
2022/10/01 00:04:06;;;;;;;29.20;3.90;;;;;;;;;;4973058;28;20054;-67
2022/10/01 00:06:32;;;;;;;27.17;4.50;;;;;;;;;;4973141;28;20451;-67
2022/10/01 00:08:59;;;;;;;33.25;5.53;;;;;;;;;;4972857;28;20049;-67
2022/10/01 00:11:25;;;;;;;25.88;4.00;;;;;;;;;;4973090;28;20050;-67
2022/10/01 00:13:52;;;;;;;23.73;3.97;;;;;;;;;;4973218;28;20054;-67
2022/10/01 00:16:21;;;;;;;26.73;4.68;;;;;;;;;;4973323;28;20069;-67
2022/10/01 00:18:48;;;;;;;21.38;3.60;;;;;;;;;;4973248;28;20053;-67
2022/10/01 00:21:16;;;;;;;18.67;3.50;;;;;;;;;;4974052;28;20054;-66
2022/10/01 00:23:42;;;;;;;14.82;3.00;;;;;;;;;;4973050;28;20112;-66
2022/10/01 00:26:22;;;;;;;16.25;3.50;;;;;;;;;;4971921;28;20073;-67
2022/10/01 00:28:53;;;;;;;19.23;3.20;;;;;;;;;;4973152;28;20404;-67
2022/10/01 00:31:20;;;;;;;25.25;4.10;;;;;;;;;;4973452;28;20061;-67
2022/10/01 00:33:47;;;;;;;22.25;4.45;;;;;;;;;;4972802;28;20129;-67
2022/10/01 00:36:13;;;;;;;28.33;4.30;;;;;;;;;;4973109;28;20054;-67
2022/10/01 00:38:40;;;;;;;21.80;3.88;;;;;;;;;;4972689;28;20285;-67
2022/10/01 00:41:07;;;;;;;24.73;3.67;;;;;;;;;;4972618;28;20050;-67
2022/10/01 00:43:36;;;;;;;18.80;3.50;;;;;;;;;;4972697;28;20062;-67
2022/10/01 00:46:14;;;;;;;24.08;3.97;;;;;;;;;;4972909;28;20051;-67
2022/10/01 00:48:57;;;;;;;22.13;3.33;;;;;;;;;;4972941;28;20058;-67
2022/10/01 00:51:25;;;;;;;22.48;3.40;;;;;;;;;;4971786;28;20138;-67
2022/10/01 00:53:53;;;;;;;20.98;4.03;;;;;;;;;;4972055;28;20509;-66
2022/10/01 00:56:19;;;;;;;23.15;3.72;;;;;;;;;;4972214;28;20050;-66
2022/10/01 00:58:46;;;;;;;19.60;3.50;;;;;;;;;;4972672;28;20486;-67
2022/10/01 01:01:12;;;;;;;22.83;4.03;;;;;;;;;;4972457;28;20142;-66
2022/10/01 01:03:39;;;;;;;25.10;3.60;;;;;;;;;;4972607;28;20466;-67
2022/10/01 01:06:06;;;;;;;26.48;4.20;;;;;;;;;;4972404;28;20055;-67
2022/10/01 01:08:33;;;;;;;;;;;;;;;;;;4973338;28;20043;-66
2022/10/01 01:11:06;;;;;;;19.58;4.03;;;;;;;;;;4972596;28;19932;-67
2022/10/01 01:13:53;;;;;;;27.67;4.03;;;;;;;;;;4972553;28;20057;-67
2022/10/01 01:16:32;;;;;;;19.45;3.55;;;;;;;;;;4972688;28;20061;-66
2022/10/01 01:19:19;;;;;;;22.40;4.28;;;;;;;;;;4972711;28;20051;-67
2022/10/01 01:21:50;;;;;;;22.13;3.72;;;;;;;;;;4974573;28;20057;-67
2022/10/01 01:24:34;;;;;;;24.48;4.32;;;;;;;;;;4976088;28;20054;-67
2022/10/01 01:27:20;;;;;;;26.38;4.13;;;;;;;;;;4975766;28;20497;-67
2022/10/01 01:29:47;;;;;;;26.23;4.10;;;;;;;;;;4975790;28;20047;-67
2022/10/01 01:32:17;;;;;;;28.70;4.50;;;;;;;;;;4976102;28;20053;-67
2022/10/01 01:34:45;;;;;;;25.75;4.35;;;;;;;;;;4975822;28;20063;-67
2022/10/01 01:37:11;;;;;;;;;;;;;;;;;;4975993;28;20495;-67
2022/10/01 01:39:41;;;;;;;32.00;4.18;;;;;;;;;;4975867;28;19948;-67
2022/10/01 01:42:18;;;;;;;27.15;4.20;;;;;;;;;;4975825;28;20058;-67
2022/10/01 01:44:46;;;;;;;29.70;3.90;;;;;;;;;;4975880;28;20088;-67
2022/10/01 01:47:13;;;;;;;26.63;3.42;;;;;;;;;;4975709;28;20046;-67
2022/10/01 01:49:40;;;;;;;30.92;4.40;;;;;;;;;;4975706;28;20403;-67
2022/10/01 01:52:16;;;;;;;22.42;3.95;;;;;;;;;;4975410;28;20066;-67
2022/10/01 01:54:43;;;;;;;17.58;3.88;;;;;;;;;;4975592;28;20058;-67
2022/10/01 01:57:10;;;;;;;26.30;3.60;;;;;;;;;;4975440;28;20061;-67
2022/10/01 01:59:36;;;;;;;29.52;3.97;;;;;;;;;;4975238;28;20061;-67
2022/10/01 02:02:05;;;;;;;33.78;4.32;;;;;;;;;;4975436;28;20043;-67
2022/10/01 02:04:35;;;;;;;29.98;4.43;;;;;;;;;;4975082;28;20554;-67
2022/10/01 02:07:07;;;;;;;24.55;4.55;;;;;;;;;;4975486;28;20043;-67
2022/10/01 02:09:34;;;;;;;30.73;4.63;;;;;;;;;;4974864;28;20411;-67
2022/10/01 02:12:08;;;;;;;28.65;4.68;;;;;;;;;;4975292;28;20065;-67
2022/10/01 02:14:54;;;;;;;23.98;3.95;;;;;;;;;;4975052;28;20434;-67
2022/10/01 02:17:24;;;;;;;25.25;3.70;;;;;;;;;;4975048;28;20522;-67
2022/10/01 02:19:54;;;;;;;24.92;4.13;;;;;;;;;;4975219;28;20418;-67
2022/10/01 02:22:24;;;;;;;23.42;3.60;;;;;;;;;;4974967;28;20199;-67
2022/10/01 02:24:57;;;;;;;29.58;4.43;;;;;;;;;;4975069;28;20042;-67
2022/10/01 02:27:33;;;;;;;29.00;4.47;;;;;;;;;;4974963;28;20415;-67
2022/10/01 02:30:02;;;;;;;19.25;3.05;;;;;;;;;;4975302;28;20047;-67
2022/10/01 02:32:29;;;;;;;27.70;4.13;;;;;;;;;;4974525;28;20050;-67
2022/10/01 02:34:56;;;;;;;20.27;3.17;;;;;;;;;;4974724;28;20051;-67
2022/10/01 02:37:24;;;;;;;21.10;4.00;;;;;;;;;;4974681;28;20053;-67
2022/10/01 02:39:53;;;;;;;23.38;4.07;;;;;;;;;;4974770;28;20150;-67
2022/10/01 02:42:20;;;;;;;23.65;3.72;;;;;;;;;;4974603;28;20057;-67
2022/10/01 02:44:48;;;;;;;24.20;4.25;;;;;;;;;;4974587;28;20058;-67
2022/10/01 02:47:27;;;;;;;26.13;4.68;;;;;;;;;;4974689;28;20055;-67
2022/10/01 02:49:53;;;;;;;23.02;3.85;;;;;;;;;;4974337;28;20495;-67
2022/10/01 02:52:19;;;;;;;28.98;4.63;;;;;;;;;;4974387;28;20082;-67
2022/10/01 02:54:46;;;;;;;27.55;3.92;;;;;;;;;;4974548;28;20066;-67
2022/10/01 02:57:23;;;;;;;23.77;4.10;;;;;;;;;;4974764;28;20054;-67
2022/10/01 02:59:50;;;;;;;27.58;3.88;;;;;;;;;;4974236;28;20434;-67
2022/10/01 03:02:17;;;;;;;23.65;4.40;;;;;;;;;;4974082;28;20054;-67
2022/10/01 03:04:43;;;;;;;27.50;4.40;;;;;;;;;;4974017;28;20106;-66
2022/10/01 03:07:10;;;;;;;25.23;4.60;;;;;;;;;;4974269;28;20055;-67
2022/10/01 03:09:36;;;;;;;19.70;3.25;;;;;;;;;;4974151;28;20047;-67
2022/10/01 03:12:03;;;;;;;28.38;4.03;;;;;;;;;;4974329;28;20061;-67
2022/10/01 03:14:31;;;;;;;22.35;3.53;;;;;;;;;;4973907;28;20050;-67
2022/10/01 03:16:57;;;;;;;20.15;3.47;;;;;;;;;;4973816;28;20507;-67
2022/10/01 03:19:23;;;;;;;23.92;3.53;;;;;;;;;;4973851;28;20063;-67
2022/10/01 03:21:50;;;;;;;21.77;3.47;;;;;;;;;;4973893;28;20054;-67
2022/10/01 03:24:16;;;;;;;23.25;3.17;;;;;;;;;;4973950;28;20067;-67
2022/10/01 03:26:44;;;;;;;26.10;3.75;;;;;;;;;;4973915;28;20045;-67
2022/10/01 03:29:12;;;;;;;24.27;3.65;;;;;;;;;;4974062;28;20134;-67
2022/10/01 03:31:38;;;;;;;24.20;3.90;;;;;;;;;;4973994;28;20058;-67
2022/10/01 03:34:04;;;;;;;22.67;3.83;;;;;;;;;;4972532;28;20462;-67
2022/10/01 03:36:31;;;;;;;15.35;3.42;;;;;;;;;;4973119;28;20055;-67
2022/10/01 03:38:57;;;;;;;18.92;3.35;;;;;;;;;;4973660;28;20062;-67
2022/10/01 03:41:24;;;;;;;18.42;2.80;;;;;;;;;;4973457;28;20051;-66
2022/10/01 03:43:50;;;;;;;20.80;4.03;;;;;;;;;;4972788;28;20533;-67
2022/10/01 03:46:17;;;;;;;21.23;2.90;;;;;;;;;;4973426;28;20046;-67
2022/10/01 03:48:43;;;;;;;17.42;3.10;;;;;;;;;;4973254;28;20050;-66
2022/10/01 03:51:09;;;;;;;15.13;3.47;;;;;;;;;;4973437;28;20046;-67
2022/10/01 03:53:36;;;;;;;17.17;3.00;;;;;;;;;;4973238;28;20065;-67
2022/10/01 03:56:03;;;;;;;21.63;3.23;;;;;;;;;;4973554;28;20057;-67
2022/10/01 03:58:30;;;;;;;26.80;3.70;;;;;;;;;;4973416;28;20475;-67
2022/10/01 04:00:57;;;;;;;20.88;3.03;;;;;;;;;;4972966;28;20422;-66
2022/10/01 04:03:23;;;;;;;16.10;2.58;;;;;;;;;;4973084;28;20050;-66
2022/10/01 04:05:50;;;;;;;21.25;3.40;;;;;;;;;;4973316;28;20042;-66
2022/10/01 04:08:16;;;;;;;21.95;2.83;;;;;;;;;;4973128;28;20515;-67
2022/10/01 04:10:49;;;;;;;14.35;2.78;;;;;;;;;;4972937;28;20569;-67
2022/10/01 04:13:16;;;;;;;19.60;2.80;;;;;;;;;;4973189;28;20058;-67
2022/10/01 04:15:42;;;;;;;17.98;2.40;;;;;;;;;;4972996;28;20058;-66
2022/10/01 04:18:09;;;;;;;12.75;1.83;;;;;;;;;;4973189;28;20138;-67
2022/10/01 04:20:36;;;;;;;17.08;2.78;;;;;;;;;;4972899;28;20495;-66
2022/10/01 04:23:03;;;;;;;12.23;2.10;;;;;;;;;;4972936;28;20057;-66
2022/10/01 04:25:30;;;;;;;12.80;2.17;;;;;;;;;;4972796;28;20057;-66
2022/10/01 04:27:58;;;;;;;11.10;1.92;;;;;;;;;;4972952;28;20066;-67
2022/10/01 04:30:29;;;;;;;13.57;2.17;;;;;;;;;;4973163;28;20047;-67
2022/10/01 04:32:55;;;;;;;11.55;2.22;;;;;;;;;;4973259;28;20047;-66
2022/10/01 04:35:22;;;;;;;15.38;2.83;;;;;;;;;;4972705;28;20491;-67
2022/10/01 04:38:02;;;;;;;15.07;2.85;;;;;;;;;;4972868;28;20055;-67
2022/10/01 04:40:29;;;;;;;19.88;3.45;;;;;;;;;;4972989;28;20105;-66
2022/10/01 04:42:56;;;;;;;18.25;2.97;;;;;;;;;;4972560;28;20055;-66
2022/10/01 04:45:22;;;;;;;17.50;3.30;;;;;;;;;;4972726;28;20043;-66
2022/10/01 04:47:49;;;;;;;16.27;2.70;;;;;;;;;;4972922;28;20043;-66
2022/10/01 04:50:16;;;;;;;17.55;3.15;;;;;;;;;;4972624;28;20047;-66
2022/10/01 04:52:43;;;;;;;16.08;2.70;;;;;;;;;;4972689;28;20051;-67
2022/10/01 04:55:10;;;;;;;17.25;2.63;;;;;;;;;;4974025;28;20057;-66
2022/10/01 04:57:37;;;;;;;18.05;2.58;;;;;;;;;;4976685;28;20047;-66
2022/10/01 05:00:05;;;;;;;16.92;2.95;;;;;;;;;;4976590;28;20061;-67
2022/10/01 05:02:33;;;;;;;19.77;2.88;;;;;;;;;;4976475;28;20050;-66
2022/10/01 05:05:03;;;;;;;20.23;3.22;;;;;;;;;;4976254;28;20402;-66
2022/10/01 05:07:30;;;;;;;17.40;3.50;;;;;;;;;;4976580;28;20080;-67
2022/10/01 05:09:57;;;;;;;19.40;3.47;;;;;;;;;;4976190;28;20073;-67
2022/10/01 05:12:24;;;;;;;22.63;3.35;;;;;;;;;;4975458;28;20412;-66
2022/10/01 05:14:51;;;;;;;19.47;2.30;;;;;;;;;;4976042;28;20051;-66
2022/10/01 05:17:18;;;;;;;21.98;3.42;;;;;;;;;;4976247;28;20055;-66
2022/10/01 05:19:45;;;;;;;14.80;3.33;;;;;;;;;;4976074;28;20507;-66
2022/10/01 05:22:11;;;;;;;20.08;3.22;;;;;;;;;;4975975;28;20077;-66
2022/10/01 05:24:37;;;;;;;19.73;2.80;;;;;;;;;;4976355;28;20047;-66
2022/10/01 05:27:04;;;;;;;23.63;2.65;;;;;;;;;;4976038;28;20054;-67
2022/10/01 05:29:32;;;;;;;14.73;3.20;;;;;;;;;;4976090;28;20047;-66
2022/10/01 05:31:58;;;;;;;22.08;3.47;;;;;;;;;;4975886;28;20057;-66
2022/10/01 05:34:25;;;;;;;22.40;3.30;;;;;;;;;;4976111;28;20388;-66
2022/10/01 05:36:51;;;;;;;18.77;2.90;;;;;;;;;;4975619;28;20496;-66
2022/10/01 05:39:17;;;;;;;17.15;2.55;;;;;;;;;;4976004;28;20182;-66
2022/10/01 05:41:44;;;;;;;18.83;2.58;;;;;;;;;;4975728;28;20403;-67
2022/10/01 05:44:10;;;;;;;17.52;3.05;;;;;;;;;;4975596;28;20047;-66
2022/10/01 05:46:36;;;;;;;16.05;2.83;;;;;;;;;;4975784;28;20060;-66
2022/10/01 05:49:03;;;;;;;18.88;2.95;;;;;;;;;;4975492;28;20058;-66
2022/10/01 05:51:29;;;;;;;17.45;3.08;;;;;;;;;;4962105;28;20050;-66
2022/10/01 05:53:57;;;;;;;14.95;2.90;;;;;;;;;;4975557;28;20488;-66
2022/10/01 05:56:24;;;;;;;13.40;2.60;;;;;;;;;;4975604;28;20050;-66
2022/10/01 05:58:51;;;;;;;15.73;2.28;;;;;;;;;;4975677;28;20121;-66
2022/10/01 06:01:17;;;;;;;20.85;3.00;;;;;;;;;;4975426;28;20406;-66
2022/10/01 06:03:43;;;;;;;16.45;3.08;;;;;;;;;;4975279;28;20548;-66
2022/10/01 06:06:10;;;;;;;21.15;3.55;;;;;;;;;;4974455;28;20491;-66
2022/10/01 06:08:39;;;;;;;24.48;3.40;;;;;;;;;;4973798;28;20050;-66
2022/10/01 06:11:05;;;;;;;16.13;3.25;;;;;;;;;;4973241;28;20420;-66
2022/10/01 06:13:34;;;;;;;16.58;2.72;;;;;;;;;;4974656;28;20053;-67
2022/10/01 06:16:00;;;;;;;17.27;3.25;;;;;;;;;;4974529;28;20064;-67
2022/10/01 06:18:27;;;;;;;16.77;2.65;;;;;;;;;;4974207;28;20109;-67
2022/10/01 06:20:53;;;;;;;20.63;3.08;;;;;;;;;;4974086;28;20057;-66
2022/10/01 06:23:20;;;;;;;22.42;3.72;;;;;;;;;;4974083;28;20046;-67
2022/10/01 06:25:46;;;;;;;20.30;3.13;;;;;;;;;;4974081;28;20051;-66
2022/10/01 06:28:14;;;;;;;24.50;3.50;;;;;;;;;;4973866;28;20511;-67
2022/10/01 06:30:41;;;;;;;21.50;3.85;;;;;;;;;;4973890;28;20516;-67
2022/10/01 06:33:09;;;;;;;20.33;2.97;;;;;;;;;;4973784;28;20446;-67
2022/10/01 06:35:38;;;;;;;23.38;4.10;;;;;;;;;;4974087;28;20291;-67
2022/10/01 06:38:05;;;;;;;28.40;4.25;;;;;;;;;;4973458;28;20059;-66
2022/10/01 06:40:31;;;;;;;21.20;3.58;;;;;;;;;;4973947;28;20054;-67
2022/10/01 06:42:58;;;;;;;19.17;3.15;;;;;;;;;;4973728;28;20047;-67
2022/10/01 06:45:25;;;;;;;23.25;3.72;;;;;;;;;;4973580;28;20492;-66
2022/10/01 06:47:52;;;;;;;20.48;4.10;;;;;;;;;;4973737;28;20395;-67
2022/10/01 06:50:18;;;;;;;19.13;3.00;;;;;;;;;;4973741;28;20045;-66
2022/10/01 06:52:48;;;;;;;24.13;3.60;;;;;;;;;;4973629;28;20058;-66
2022/10/01 06:55:18;;;;;;;21.90;3.35;;;;;;;;;;4971551;28;20051;-67
2022/10/01 06:57:45;;;;;;;20.27;4.18;;;;;;;;;;4973448;28;20074;-67
2022/10/01 07:00:13;;;;;;;20.67;3.50;;;;;;;;;;4973302;28;20050;-67
2022/10/01 07:02:39;;;;;;;18.85;4.20;;;;;;;;;;4973367;28;20054;-67
2022/10/01 07:05:07;;;;;;;14.43;3.92;;;;;;;;;;4973420;28;20043;-66
2022/10/01 07:07:34;;;;;;;12.80;3.45;;;;;;;;;;4973118;28;20055;-66
2022/10/01 07:10:01;;;;;;;14.90;3.60;;;;;;;;;;4973079;28;20411;-66
2022/10/01 07:12:28;;;;;;;13.50;3.03;;;;;;;;;;4973410;28;20055;-66
2022/10/01 07:14:54;;;;;;;17.27;3.42;;;;;;;;;;4973194;28;20077;-67
2022/10/01 07:17:21;;;;;;;16.60;3.67;;;;;;;;;;4973680;28;20046;-66
2022/10/01 07:19:47;;;;;;;13.48;2.47;;;;;;;;;;4973734;28;20069;-66
2022/10/01 07:22:13;;;;;;;13.00;3.05;;;;;;;;;;4973330;28;20058;-67
2022/10/01 07:24:40;;;;;;;21.10;3.10;;;;;;;;;;4973535;28;20051;-67
2022/10/01 07:27:06;;;;;;;18.65;2.85;;;;;;;;;;4970886;28;20218;-67
2022/10/01 07:29:33;;;;;;;17.48;3.72;;;;;;;;;;4970131;28;20059;-67
2022/10/01 07:31:59;;;;;;;12.98;3.88;;;;;;;;;;4972445;28;20073;-67
2022/10/01 07:34:26;;;;;;;14.25;3.22;;;;;;;;;;4972216;28;20142;-67
2022/10/01 07:36:55;;;;;;;15.60;3.17;;;;;;;;;;4972044;28;20073;-67
2022/10/01 07:39:22;;;;;;;15.10;3.10;;;;;;;;;;4972667;28;20518;-66
2022/10/01 07:41:50;;;;;;;19.17;3.13;;;;;;;;;;4972054;28;20059;-67
2022/10/01 07:44:17;;;;;;;19.15;3.58;;;;;;;;;;4972254;28;20080;-67
2022/10/01 07:46:43;;;;;;;18.67;3.10;;;;;;;;;;4972029;28;20053;-67
2022/10/01 07:49:09;;;;;;;23.48;3.30;;;;;;;;;;4972774;28;20046;-68
2022/10/01 07:51:36;;;;;;;19.45;2.85;;;;;;;;;;4972450;28;20491;-67
2022/10/01 07:54:03;;;;;;;12.93;2.40;;;;;;;;;;4971760;28;20574;-66
2022/10/01 07:56:29;;;;;;;20.23;3.27;;;;;;;;;;4970399;28;20041;-66
2022/10/01 07:58:57;;;;;;;16.55;2.60;;;;;;;;;;4972577;28;20280;-66
2022/10/01 08:01:23;;;;;;;14.35;2.85;;;;;;;;;;4972065;28;20479;-66
2022/10/01 08:03:50;;;;;;;18.48;2.92;;;;;;;;;;4972334;28;20059;-67
2022/10/01 08:06:17;;;;;;;14.47;2.37;;;;;;;;;;4972827;28;20062;-66
2022/10/01 08:08:50;;;;;;;12.18;2.40;;;;;;;;;;4972440;28;20058;-67
2022/10/01 08:11:17;;;;;;;17.67;2.40;;;;;;;;;;4972444;28;20423;-67
2022/10/01 08:13:46;;;;;;;12.18;2.10;;;;;;;;;;4972614;28;20420;-66
2022/10/01 08:16:13;;;;;;;11.55;1.83;;;;;;;;;;4972701;28;20051;-67
2022/10/01 08:18:39;;;;;;;7.18;1.98;;;;;;;;;;4972638;28;20141;-67
2022/10/01 08:21:06;;;;;;;8.60;1.65;;;;;;;;;;4972468;28;20061;-67
2022/10/01 08:23:33;;;;;;;10.90;1.50;;;;;;;;;;4972394;28;20498;-67
2022/10/01 08:26:00;;;;;;;11.07;1.73;;;;;;;;;;4972699;28;20043;-66
2022/10/01 08:28:27;;;;;;;5.55;1.52;;;;;;;;;;4972764;28;20059;-67
2022/10/01 08:30:55;;;;;;;7.13;1.33;;;;;;;;;;4977115;28;20487;-67
2022/10/01 08:33:21;;;;;;;5.78;1.50;;;;;;;;;;4978604;28;20058;-68
2022/10/01 08:35:48;;;;;;;11.93;2.17;;;;;;;;;;4978964;28;20076;-68
2022/10/01 08:38:14;;;;;;;11.75;1.75;;;;;;;;;;4979012;28;20058;-69
2022/10/01 08:40:44;;;;;;;11.10;2.28;;;;;;;;;;4978912;28;20070;-67
2022/10/01 08:43:18;;;;;;;10.32;2.13;;;;;;;;;;4978842;28;20051;-67
2022/10/01 08:45:45;;;;;;;10.30;2.00;;;;;;;;;;4978488;28;20043;-67
2022/10/01 08:48:18;;;;;;;10.57;2.40;;;;;;;;;;4971388;28;20125;-67
2022/10/01 08:51:02;;;;;;;15.45;3.10;;;;;;;;;;4978955;28;20062;-68
2022/10/01 08:53:37;;;;;;;9.82;2.28;;;;;;;;;;4978594;28;20053;-68
2022/10/01 08:56:05;;;;;;;12.88;2.53;;;;;;;;;;4976910;28;20054;-67
2022/10/01 08:58:39;;;;;;;15.98;2.92;;;;;;;;;;4975413;28;20403;-67
2022/10/01 09:01:05;;;;;;;13.98;2.72;;;;;;;;;;4976602;28;20067;-68
2022/10/01 09:03:32;;;;;;;15.98;2.95;;;;;;;;;;4978732;28;20051;-67
2022/10/01 09:06:09;;;;;;;11.30;2.78;;;;;;;;;;4978450;28;20483;-68
2022/10/01 09:08:45;;;;;;;19.38;2.60;;;;;;;;;;4965515;28;20058;-67
2022/10/01 09:11:30;;;;;;;11.68;2.78;;;;;;;;;;4964900;28;20059;-66
2022/10/01 09:13:58;;;;;;;17.38;3.33;;;;;;;;;;4978349;28;20105;-67
2022/10/01 09:16:24;;;;;;;;;;;;;;;;;;4978816;28;20074;-68
2022/10/01 09:19:09;;;;;;;14.73;3.15;;;;;;;;;;4978750;28;19929;-64
2022/10/01 09:21:40;;;;;;;13.88;2.65;;;;;;;;;;4978409;28;20105;-63
2022/10/01 09:24:13;;;;;;;12.52;3.35;;;;;;;;;;4978187;28;20053;-64
2022/10/01 09:26:42;;;;;;;12.57;2.83;;;;;;;;;;4977537;28;20051;-65
2022/10/01 09:29:12;;;;;;;14.30;2.65;;;;;;;;;;4978638;28;20113;-65
2022/10/01 09:31:41;;;;;;;16.27;2.92;;;;;;;;;;4978548;28;20055;-64
2022/10/01 09:34:10;;;;;;;15.57;2.78;;;;;;;;;;4978218;28;20081;-65
2022/10/01 09:36:45;;;;;;;16.30;3.45;;;;;;;;;;4978131;28;20078;-65
2022/10/01 09:39:12;;;;;;;10.95;3.13;;;;;;;;;;4978577;28;20051;-65
2022/10/01 09:41:38;;;;;;;13.93;2.92;;;;;;;;;;4975488;28;20066;-65
2022/10/01 09:44:11;;;;;;;10.95;2.00;;;;;;;;;;4975243;28;20050;-65
2022/10/01 09:46:44;;;;;;;10.00;2.15;;;;;;;;;;4975409;28;20046;-65
2022/10/01 09:49:18;;;;;;;9.13;2.25;;;;;;;;;;4975014;28;20054;-66
2022/10/01 09:51:47;;;;;;;14.43;2.50;;;;;;;;;;4965348;28;20057;-65
2022/10/01 09:54:34;;;;;;;14.98;2.90;;;;;;;;;;4974320;28;20047;-65
2022/10/01 09:57:06;;;;;;;14.02;3.10;;;;;;;;;;4946321;28;20059;-65
2022/10/01 09:59:44;;;;;;;12.38;2.40;;;;;;;;;;4973929;28;20066;-65
2022/10/01 10:02:21;;;;;;;13.23;2.17;;;;;;;;;;4975420;28;20054;-65
2022/10/01 10:04:57;;;;;;;14.93;3.03;;;;;;;;;;4975513;28;20047;-65
2022/10/01 10:07:24;;;;;;;15.10;3.05;;;;;;;;;;4975563;28;20047;-65
2022/10/01 10:09:51;;;;;;;14.38;2.67;;;;;;;;;;4974833;28;20051;-65
2022/10/01 10:12:25;;;;;;;17.40;2.75;;;;;;;;;;4975389;28;20080;-65
2022/10/01 10:14:54;;;;;;;13.95;3.03;;;;;;;;;;4974623;28;20051;-66
2022/10/01 10:17:21;;;;;;;14.07;2.53;;;;;;;;;;4966413;28;20130;-67
2022/10/01 10:19:50;;;;;;;14.20;3.63;;;;;;;;;;4973122;28;20058;-65
2022/10/01 10:22:24;;;;;;;13.23;2.85;;;;;;;;;;4974443;28;20285;-67
2022/10/01 10:24:52;;;;;;;14.40;3.38;;;;;;;;;;4974837;28;20046;-67
2022/10/01 10:27:26;;;;;;;13.27;2.67;;;;;;;;;;4974381;28;20387;-67
2022/10/01 10:30:05;;;;;;;11.77;2.42;;;;;;;;;;4974208;28;20054;-67
2022/10/01 10:32:31;;;;;;;15.32;2.92;;;;;;;;;;4974181;28;20049;-67
2022/10/01 10:35:02;;;;;;;8.88;2.20;;;;;;;;;;4974681;28;20498;-67
2022/10/01 10:37:30;;;;;;;9.82;1.98;;;;;;;;;;4974297;28;20595;-67
2022/10/01 10:39:57;;;;;;;11.25;2.20;;;;;;;;;;4974461;28;20050;-67
2022/10/01 10:42:24;;;;;;;8.73;1.80;;;;;;;;;;4974315;28;20066;-67
2022/10/01 10:44:51;;;;;;;7.90;1.80;;;;;;;;;;4974594;28;20046;-67
2022/10/01 10:47:19;;;;;;;11.85;2.28;;;;;;;;;;4974559;28;20086;-66
2022/10/01 10:49:48;;;;;;;9.63;2.05;;;;;;;;;;4974539;28;20053;-67
2022/10/01 10:52:35;;;;;;;9.38;2.38;;;;;;;;;;4974300;28;20043;-67
2022/10/01 10:55:22;;;;;;;9.48;2.30;;;;;;;;;;4974585;28;20494;-67
2022/10/01 10:57:48;;;;;;;;;;;;;;;;;;4974497;28;20077;-67
2022/10/01 11:00:17;;;;;;;9.05;2.22;;;;;;;;;;4974340;28;20013;-65
2022/10/01 11:02:49;;;;;;;9.32;2.10;;;;;;;;;;4974105;28;20055;-67
2022/10/01 11:05:19;;;;;;;10.77;2.53;;;;;;;;;;4974504;28;20043;-67
2022/10/01 11:07:47;;;;;;;8.95;2.20;;;;;;;;;;4973623;28;20055;-67
2022/10/01 11:10:23;;;;;;;10.38;2.30;;;;;;;;;;4973927;28;20061;-68
2022/10/01 11:12:55;;;;;;;10.37;2.33;;;;;;;;;;4973969;28;20534;-68
2022/10/01 11:15:25;;;;;;;9.27;2.40;;;;;;;;;;4974190;28;20050;-68
2022/10/01 11:18:00;;;;;;;10.35;2.45;;;;;;;;;;4974219;28;20410;-67
2022/10/01 11:20:32;;;;;;;10.88;2.78;;;;;;;;;;4973904;28;20055;-67
2022/10/01 11:23:05;;;;;;;11.52;3.05;;;;;;;;;;4973914;28;20402;-67
2022/10/01 11:25:35;;;;;;;11.73;2.95;;;;;;;;;;4971213;28;20050;-67
2022/10/01 11:28:21;;;;;;;11.15;2.60;;;;;;;;;;4973593;28;20051;-68
2022/10/01 11:31:01;;;;;;;13.05;3.10;;;;;;;;;;4971102;28;20048;-68
2022/10/01 11:33:33;;;;;;;8.40;1.88;;;;;;;;;;4972541;28;20043;-67
2022/10/01 11:36:03;;;;;;;6.80;1.58;;;;;;;;;;4962630;28;20051;-67
2022/10/01 11:38:50;;;;;;;8.95;2.00;;;;;;;;;;4956719;28;20058;-67
2022/10/01 11:41:22;;;;;;;10.48;2.00;;;;;;;;;;4955022;28;20058;-67
2022/10/01 11:43:53;;;;;;;6.75;1.80;;;;;;;;;;4956762;28;20063;-67
2022/10/01 11:46:47;;;;;;;7.78;2.10;;;;;;;;;;4953732;28;20039;-67
2022/10/01 11:49:26;;;;;;;7.93;1.77;;;;;;;;;;4938913;28;20126;-68
2022/10/01 11:51:57;;;;;;;8.70;2.00;;;;;;;;;;4958838;28;20048;-67
2022/10/01 11:54:24;;;;;;;11.43;1.73;;;;;;;;;;4954461;28;20055;-67
2022/10/01 12:00:08;;;;;;;8.15;2.08;;;;;;;;;;4953256;28;20063;-67
2022/10/01 12:02:39;;;;;;;10.98;2.00;;;;;;;;;;4945025;28;20434;-68
2022/10/01 12:05:08;;;;;;;8.75;2.17;;;;;;;;;;4952738;28;20494;-68
2022/10/01 12:07:45;;;;;;;7.40;1.80;;;;;;;;;;4954407;28;20444;-68
2022/10/01 12:10:27;;;;;;;8.73;1.75;;;;;;;;;;4954193;28;20055;-67
2022/10/01 12:13:03;;;;;;;9.57;2.13;;;;;;;;;;4954363;28;20058;-66
2022/10/01 12:16:00;;;;;;;7.78;1.90;;;;;;;;;;4953673;28;20055;-65
2022/10/01 12:18:30;;;;;;;7.75;2.00;;;;;;;;;;4919267;28;20499;-66
2022/10/01 12:21:01;;;;;;;9.93;2.15;;;;;;;;;;4953358;28;20138;-65
2022/10/01 12:23:31;;;;;;;9.23;2.30;;;;;;;;;;4953255;28;20050;-65
2022/10/01 12:26:00;;;;;;;6.28;1.75;;;;;;;;;;4953321;28;20047;-65
2022/10/01 12:28:59;;;;;;;6.45;2.00;;;;;;;;;;4953217;28;20765;-65
2022/10/01 12:31:35;;;;;;;6.18;1.67;;;;;;;;;;4943124;28;20051;-65
2022/10/01 12:34:05;;;;;;;7.88;2.10;;;;;;;;;;4960544;28;20054;-65
2022/10/01 12:36:33;;;;;;;7.47;2.00;;;;;;;;;;4970504;28;20054;-65
2022/10/01 12:39:02;;;;;;;7.40;1.88;;;;;;;;;;4971055;28;20051;-67
2022/10/01 12:41:32;;;;;;;11.63;2.30;;;;;;;;;;4963802;28;20388;-67
2022/10/01 12:44:17;;;;;;;8.48;2.20;;;;;;;;;;4955132;28;20047;-72
2022/10/01 12:46:43;;;;;;;10.82;2.30;;;;;;;;;;4951222;28;20055;-67
2022/10/01 12:49:24;;;;;;;10.80;2.53;;;;;;;;;;4952341;28;20554;-67
2022/10/01 12:52:05;;;;;;;8.70;2.25;;;;;;;;;;4952754;28;20047;-67
2022/10/01 12:54:53;;;;;;;12.10;1.88;;;;;;;;;;4952838;28;20051;-68
2022/10/01 12:57:19;;;;;;;9.18;2.00;;;;;;;;;;4953027;28;20073;-68
2022/10/01 12:59:58;;;;;;;7.73;2.13;;;;;;;;;;4951092;28;20051;-68
2022/10/01 13:02:48;;;;;;;9.68;2.50;;;;;;;;;;4957025;28;20462;-68
2022/10/01 13:05:33;;;;;;;11.02;2.17;;;;;;;;;;4945912;28;20051;-66
2022/10/01 13:08:17;;;;;;;11.70;2.38;;;;;;;;;;4962128;28;20051;-67
2022/10/01 13:10:50;;;;;;;10.95;2.60;;;;;;;;;;4969218;28;20058;-68
2022/10/01 13:13:33;;;;;;;10.05;2.55;;;;;;;;;;4971873;28;20061;-68
2022/10/01 13:16:09;;;;;;;10.65;2.20;;;;;;;;;;4973136;28;20515;-69
2022/10/01 13:18:39;;;;;;;12.38;2.67;;;;;;;;;;4975657;28;20081;-68
2022/10/01 13:21:05;;;;;;;9.80;2.00;;;;;;;;;;4975427;28;20042;-68
2022/10/01 13:23:52;;;;;;;10.57;2.35;;;;;;;;;;4975379;28;20047;-68
2022/10/01 13:26:27;;;;;;;10.75;1.95;;;;;;;;;;4975514;28;20058;-67
2022/10/01 13:28:59;;;;;;;10.02;2.42;;;;;;;;;;4975638;28;20043;-67
2022/10/01 13:31:37;;;;;;;8.88;2.08;;;;;;;;;;4961889;28;20043;-68
2022/10/01 13:34:23;;;;;;;11.07;2.28;;;;;;;;;;4974916;28;20175;-68
2022/10/01 13:36:49;;;;;;;13.43;2.30;;;;;;;;;;4974877;28;20410;-68
2022/10/01 13:39:31;;;;;;;8.43;1.90;;;;;;;;;;4974704;28;20434;-68
2022/10/01 13:42:03;;;;;;;11.25;3.05;;;;;;;;;;4975106;28;20458;-67
2022/10/01 13:44:32;;;;;;;10.60;2.22;;;;;;;;;;4974330;28;20484;-67
2022/10/01 13:47:02;;;;;;;8.70;2.38;;;;;;;;;;4971515;28;20051;-67
2022/10/01 13:49:29;;;;;;;10.85;2.33;;;;;;;;;;4974747;28;20381;-67
2022/10/01 13:51:56;;;;;;;9.48;1.95;;;;;;;;;;4974626;28;20047;-67
2022/10/01 13:54:26;;;;;;;15.20;2.53;;;;;;;;;;4974648;28;20057;-66
2022/10/01 13:56:53;;;;;;;13.85;2.28;;;;;;;;;;4974374;28;20061;-66
2022/10/01 13:59:29;;;;;;;12.93;2.50;;;;;;;;;;4974933;28;20078;-67
2022/10/01 14:01:56;;;;;;;13.80;3.28;;;;;;;;;;4974168;28;20281;-67
2022/10/01 14:04:30;;;;;;;10.13;2.83;;;;;;;;;;4966970;28;20047;-68
2022/10/01 14:06:59;;;;;;;12.98;3.03;;;;;;;;;;4963643;28;20046;-67
2022/10/01 14:09:27;;;;;;;10.77;2.53;;;;;;;;;;4972087;28;20510;-68
2022/10/01 14:17:42;;;;;;;9.38;2.03;;;;;;;;;;4974052;28;20047;-66
2022/10/01 14:20:16;;;;;;;9.45;1.90;;;;;;;;;;4974294;28;20051;-65
2022/10/01 14:22:42;;;;;;;10.75;4.20;;;;;;;;;;4974319;28;20718;-65
2022/10/01 14:25:12;;;;;;;17.40;10.65;;;;;;;;;;4973940;28;20545;-65
2022/10/01 14:27:49;;;;;;;15.73;8.43;;;;;;;;;;4973485;28;20207;-65
2022/10/01 14:30:15;;;;;;;;;;;;;;;;;;4974409;28;20054;-65
2022/10/01 14:32:49;;;;;;;21.63;12.55;;;;;;;;;;4973810;28;20341;-65
2022/10/01 14:35:31;;;;;;;11.13;4.22;;;;;;;;;;4974804;28;20057;-65
2022/10/01 14:37:59;;;;;;;11.65;3.63;;;;;;;;;;4974494;28;20050;-65
2022/10/01 14:40:33;;;;;;;9.82;3.15;;;;;;;;;;4974096;28;20065;-65
2022/10/01 14:43:00;;;;;;;9.68;2.60;;;;;;;;;;4974242;28;20054;-65
2022/10/01 14:45:27;;;;;;;12.90;6.20;;;;;;;;;;4974246;28;20051;-65
2022/10/01 14:48:01;;;;;;;16.60;8.18;;;;;;;;;;4974015;28;20050;-65
2022/10/01 14:50:29;;;;;;;10.55;5.35;;;;;;;;;;4974203;28;20054;-66
2022/10/01 14:52:57;;;;;;;7.93;2.67;;;;;;;;;;4973785;28;20049;-66
2022/10/01 14:55:24;;;;;;;47.08;35.58;;;;;;;;;;4973902;28;20057;-66
2022/10/01 14:57:52;;;;;;;13.27;5.25;;;;;;;;;;4973877;28;20050;-66
2022/10/01 15:00:21;;;;;;;9.00;3.45;;;;;;;;;;4973966;28;20054;-66